sensor_id;sensor_type;location;lat;lon;timestamp;temperature;humidity
19544;DHT22;9917;51.256;7.152;2023-05-10T00:00:07;14.10;99.90
19544;DHT22;9917;51.256;7.152;2023-05-10T00:02:34;14.50;99.90
19544;DHT22;9917;51.256;7.152;2023-05-10T00:05:00;14.10;99.90
19544;DHT22;9917;51.256;7.152;2023-05-10T00:12:18;14.20;99.90
19544;DHT22;9917;51.256;7.152;2023-05-10T00:19:57;14.10;99.90
19544;DHT22;9917;51.256;7.152;2023-05-10T00:24:49;13.70;99.90
19544;DHT22;9917;51.256;7.152;2023-05-10T00:29:41;14.00;99.90
19544;DHT22;9917;51.256;7.152;2023-05-10T00:37:00;14.10;99.90
19544;DHT22;9917;51.256;7.152;2023-05-10T00:39:25;14.50;99.90
19544;DHT22;9917;51.256;7.152;2023-05-10T00:44:17;13.90;99.90
19544;DHT22;9917;51.256;7.152;2023-05-10T00:46:43;14.30;99.90
19544;DHT22;9917;51.256;7.152;2023-05-10T00:51:34;13.60;99.90
19544;DHT22;9917;51.256;7.152;2023-05-10T00:54:02;14.10;99.90
19544;DHT22;9917;51.256;7.152;2023-05-10T01:01:20;13.90;99.90
19544;DHT22;9917;51.256;7.152;2023-05-10T01:06:12;14.20;99.90
19544;DHT22;9917;51.256;7.152;2023-05-10T01:11:05;14.10;99.90
19544;DHT22;9917;51.256;7.152;2023-05-10T01:13:35;13.70;99.90
19544;DHT22;9917;51.256;7.152;2023-05-10T01:16:01;13.80;99.90
19544;DHT22;9917;51.256;7.152;2023-05-10T01:18:28;14.70;99.90
19544;DHT22;9917;51.256;7.152;2023-05-10T01:20:59;14.10;99.90
19544;DHT22;9917;51.256;7.152;2023-05-10T01:23:40;14.00;99.90
19544;DHT22;9917;51.256;7.152;2023-05-10T01:26:40;14.00;99.90
19544;DHT22;9917;51.256;7.152;2023-05-10T01:29:30;14.00;99.90
19544;DHT22;9917;51.256;7.152;2023-05-10T01:32:26;14.10;99.90
19544;DHT22;9917;51.256;7.152;2023-05-10T01:34:59;13.70;99.90
19544;DHT22;9917;51.256;7.152;2023-05-10T01:37:31;14.00;99.90
19544;DHT22;9917;51.256;7.152;2023-05-10T01:40:05;14.80;99.90
19544;DHT22;9917;51.256;7.152;2023-05-10T01:42:38;14.00;99.90
19544;DHT22;9917;51.256;7.152;2023-05-10T01:45:20;14.00;99.90
19544;DHT22;9917;51.256;7.152;2023-05-10T01:47:54;14.10;99.90
19544;DHT22;9917;51.256;7.152;2023-05-10T01:50:27;14.10;99.90
19544;DHT22;9917;51.256;7.152;2023-05-10T01:52:54;14.10;99.90
19544;DHT22;9917;51.256;7.152;2023-05-10T01:55:27;13.90;99.90
19544;DHT22;9917;51.256;7.152;2023-05-10T01:58:02;14.10;99.90
19544;DHT22;9917;51.256;7.152;2023-05-10T02:01:03;14.10;99.90
19544;DHT22;9917;51.256;7.152;2023-05-10T02:03:32;14.00;99.90
19544;DHT22;9917;51.256;7.152;2023-05-10T02:05:59;13.60;99.90
19544;DHT22;9917;51.256;7.152;2023-05-10T02:08:26;14.50;99.90
19544;DHT22;9917;51.256;7.152;2023-05-10T02:10:53;14.00;99.90
19544;DHT22;9917;51.256;7.152;2023-05-10T02:13:20;14.00;99.90
19544;DHT22;9917;51.256;7.152;2023-05-10T02:15:48;14.00;99.90
19544;DHT22;9917;51.256;7.152;2023-05-10T02:18:14;14.00;99.90
19544;DHT22;9917;51.256;7.152;2023-05-10T02:20:43;14.00;99.90
19544;DHT22;9917;51.256;7.152;2023-05-10T02:25:36;14.40;99.90
19544;DHT22;9917;51.256;7.152;2023-05-10T02:28:05;13.90;99.90
19544;DHT22;9917;51.256;7.152;2023-05-10T02:30:32;14.00;99.90
19544;DHT22;9917;51.256;7.152;2023-05-10T02:32:59;14.00;99.90
19544;DHT22;9917;51.256;7.152;2023-05-10T02:35:27;13.70;99.90
19544;DHT22;9917;51.256;7.152;2023-05-10T02:37:55;14.50;99.90
19544;DHT22;9917;51.256;7.152;2023-05-10T02:40:22;14.20;99.90
19544;DHT22;9917;51.256;7.152;2023-05-10T02:43:04;14.00;99.90
19544;DHT22;9917;51.256;7.152;2023-05-10T02:45:41;13.90;99.90
19544;DHT22;9917;51.256;7.152;2023-05-10T02:48:08;13.70;99.90
19544;DHT22;9917;51.256;7.152;2023-05-10T02:50:34;14.20;99.90
19544;DHT22;9917;51.256;7.152;2023-05-10T02:53:15;13.90;99.90
19544;DHT22;9917;51.256;7.152;2023-05-10T02:55:43;14.00;99.90
19544;DHT22;9917;51.256;7.152;2023-05-10T02:58:11;14.40;99.90
19544;DHT22;9917;51.256;7.152;2023-05-10T03:00:46;13.80;99.90
19544;DHT22;9917;51.256;7.152;2023-05-10T03:03:12;13.50;99.90
19544;DHT22;9917;51.256;7.152;2023-05-10T03:08:04;13.90;99.90
19544;DHT22;9917;51.256;7.152;2023-05-10T03:10:32;13.90;99.90
19544;DHT22;9917;51.256;7.152;2023-05-10T03:13:07;13.80;99.90
19544;DHT22;9917;51.256;7.152;2023-05-10T03:15:42;13.90;99.90
19544;DHT22;9917;51.256;7.152;2023-05-10T03:18:15;13.80;99.90
19544;DHT22;9917;51.256;7.152;2023-05-10T03:20:47;13.70;99.90
19544;DHT22;9917;51.256;7.152;2023-05-10T03:23:19;14.30;99.90
19544;DHT22;9917;51.256;7.152;2023-05-10T03:25:48;15.10;99.90
19544;DHT22;9917;51.256;7.152;2023-05-10T03:28:16;13.10;99.90
19544;DHT22;9917;51.256;7.152;2023-05-10T03:30:43;13.90;99.90
19544;DHT22;9917;51.256;7.152;2023-05-10T03:42:54;13.60;99.90
19544;DHT22;9917;51.256;7.152;2023-05-10T03:45:20;13.80;99.90
19544;DHT22;9917;51.256;7.152;2023-05-10T03:50:13;14.20;99.90
19544;DHT22;9917;51.256;7.152;2023-05-10T03:52:38;13.40;99.90
19544;DHT22;9917;51.256;7.152;2023-05-10T03:55:05;13.40;99.90
19544;DHT22;9917;51.256;7.152;2023-05-10T03:59:58;13.70;99.90
19544;DHT22;9917;51.256;7.152;2023-05-10T04:02:24;14.10;99.90
19544;DHT22;9917;51.256;7.152;2023-05-10T04:17:01;14.00;99.90
19544;DHT22;9917;51.256;7.152;2023-05-10T04:19:29;13.70;99.90
19544;DHT22;9917;51.256;7.152;2023-05-10T04:26:49;12.90;99.90
19544;DHT22;9917;51.256;7.152;2023-05-10T04:29:17;13.80;99.90
19544;DHT22;9917;51.256;7.152;2023-05-10T04:31:43;13.60;99.90
19544;DHT22;9917;51.256;7.152;2023-05-10T04:34:10;13.90;99.90
19544;DHT22;9917;51.256;7.152;2023-05-10T04:36:36;13.70;99.90
19544;DHT22;9917;51.256;7.152;2023-05-10T04:39:02;13.80;99.90
19544;DHT22;9917;51.256;7.152;2023-05-10T04:41:27;14.70;99.90
19544;DHT22;9917;51.256;7.152;2023-05-10T04:51:12;14.10;99.90
19544;DHT22;9917;51.256;7.152;2023-05-10T04:53:38;13.70;99.90
19544;DHT22;9917;51.256;7.152;2023-05-10T04:56:04;13.80;99.90
19544;DHT22;9917;51.256;7.152;2023-05-10T04:58:30;14.20;99.90
19544;DHT22;9917;51.256;7.152;2023-05-10T05:03:22;13.80;99.90
19544;DHT22;9917;51.256;7.152;2023-05-10T05:08:15;14.60;99.90
19544;DHT22;9917;51.256;7.152;2023-05-10T05:10:41;14.70;99.90
19544;DHT22;9917;51.256;7.152;2023-05-10T05:13:07;13.90;99.90
19544;DHT22;9917;51.256;7.152;2023-05-10T05:17:59;14.70;99.90
19544;DHT22;9917;51.256;7.152;2023-05-10T05:25:18;14.20;99.90
19544;DHT22;9917;51.256;7.152;2023-05-10T05:30:10;13.90;99.90
19544;DHT22;9917;51.256;7.152;2023-05-10T05:32:36;14.40;99.90
19544;DHT22;9917;51.256;7.152;2023-05-10T05:42:22;14.00;99.90
19544;DHT22;9917;51.256;7.152;2023-05-10T05:44:48;13.70;99.90
19544;DHT22;9917;51.256;7.152;2023-05-10T05:49:39;14.30;99.90
19544;DHT22;9917;51.256;7.152;2023-05-10T05:54:31;14.30;99.90
19544;DHT22;9917;51.256;7.152;2023-05-10T05:56:58;14.30;99.90
19544;DHT22;9917;51.256;7.152;2023-05-10T05:59:25;14.40;99.90
19544;DHT22;9917;51.256;7.152;2023-05-10T06:01:51;14.10;99.90
19544;DHT22;9917;51.256;7.152;2023-05-10T06:11:56;13.90;99.90
19544;DHT22;9917;51.256;7.152;2023-05-10T06:14:25;14.50;99.90
19544;DHT22;9917;51.256;7.152;2023-05-10T06:24:17;14.90;99.90
19544;DHT22;9917;51.256;7.152;2023-05-10T06:26:45;15.00;99.90
19544;DHT22;9917;51.256;7.152;2023-05-10T06:31:38;15.10;99.90
19544;DHT22;9917;51.256;7.152;2023-05-10T06:34:07;15.00;99.90
19544;DHT22;9917;51.256;7.152;2023-05-10T06:36:33;14.50;99.90
19544;DHT22;9917;51.256;7.152;2023-05-10T06:48:44;14.40;99.90
19544;DHT22;9917;51.256;7.152;2023-05-10T06:51:10;14.60;99.90
19544;DHT22;9917;51.256;7.152;2023-05-10T06:58:27;15.20;99.90
19544;DHT22;9917;51.256;7.152;2023-05-10T07:05:46;14.90;99.90
19544;DHT22;9917;51.256;7.152;2023-05-10T07:08:12;15.00;99.90
19544;DHT22;9917;51.256;7.152;2023-05-10T07:22:49;13.90;99.90
19544;DHT22;9917;51.256;7.152;2023-05-10T07:25:15;15.20;99.90
19544;DHT22;9917;51.256;7.152;2023-05-10T07:30:08;15.20;99.90
19544;DHT22;9917;51.256;7.152;2023-05-10T07:37:26;15.70;99.90
19544;DHT22;9917;51.256;7.152;2023-05-10T07:39:53;15.10;99.90
19544;DHT22;9917;51.256;7.152;2023-05-10T07:56:56;16.00;99.90
19544;DHT22;9917;51.256;7.152;2023-05-10T07:59:22;16.20;99.90
19544;DHT22;9917;51.256;7.152;2023-05-10T08:06:40;16.80;99.90
19544;DHT22;9917;51.256;7.152;2023-05-10T08:09:06;16.90;99.90
19544;DHT22;9917;51.256;7.152;2023-05-10T08:13:59;16.40;99.90
19544;DHT22;9917;51.256;7.152;2023-05-10T08:26:09;16.70;99.90
19544;DHT22;9917;51.256;7.152;2023-05-10T08:31:02;17.60;99.90
19544;DHT22;9917;51.256;7.152;2023-05-10T08:35:57;17.50;99.90
19544;DHT22;9917;51.256;7.152;2023-05-10T08:40:49;17.00;99.90
19544;DHT22;9917;51.256;7.152;2023-05-10T08:45:45;17.70;99.90
19544;DHT22;9917;51.256;7.152;2023-05-10T08:48:14;18.30;99.90
19544;DHT22;9917;51.256;7.152;2023-05-10T08:50:41;18.50;99.90
19544;DHT22;9917;51.256;7.152;2023-05-10T08:53:10;19.50;99.90
19544;DHT22;9917;51.256;7.152;2023-05-10T08:55:36;19.70;99.90
19544;DHT22;9917;51.256;7.152;2023-05-10T09:00:29;17.40;99.90
19544;DHT22;9917;51.256;7.152;2023-05-10T09:05:22;19.50;99.90
19544;DHT22;9917;51.256;7.152;2023-05-10T09:10:15;18.80;99.90
19544;DHT22;9917;51.256;7.152;2023-05-10T09:12:41;17.90;99.90
19544;DHT22;9917;51.256;7.152;2023-05-10T09:15:09;18.10;99.90
19544;DHT22;9917;51.256;7.152;2023-05-10T09:17:36;18.00;99.90
19544;DHT22;9917;51.256;7.152;2023-05-10T09:20:03;18.00;99.90
19544;DHT22;9917;51.256;7.152;2023-05-10T09:22:31;17.90;99.90
19544;DHT22;9917;51.256;7.152;2023-05-10T09:25:04;17.70;99.90
19544;DHT22;9917;51.256;7.152;2023-05-10T09:32:37;17.90;99.90
19544;DHT22;9917;51.256;7.152;2023-05-10T09:35:09;17.10;99.90
19544;DHT22;9917;51.256;7.152;2023-05-10T09:37:36;17.00;99.90
19544;DHT22;9917;51.256;7.152;2023-05-10T09:40:05;17.10;99.90
19544;DHT22;9917;51.256;7.152;2023-05-10T09:42:31;17.00;99.90
19544;DHT22;9917;51.256;7.152;2023-05-10T09:45:14;17.90;99.90
19544;DHT22;9917;51.256;7.152;2023-05-10T09:50:07;18.00;99.90
19544;DHT22;9917;51.256;7.152;2023-05-10T09:52:47;18.10;99.90
19544;DHT22;9917;51.256;7.152;2023-05-10T09:55:23;18.30;99.90
19544;DHT22;9917;51.256;7.152;2023-05-10T09:58:15;17.90;99.90
19544;DHT22;9917;51.256;7.152;2023-05-10T10:00:45;18.20;99.90
19544;DHT22;9917;51.256;7.152;2023-05-10T10:03:16;17.90;99.90
19544;DHT22;9917;51.256;7.152;2023-05-10T10:05:42;17.10;99.90
19544;DHT22;9917;51.256;7.152;2023-05-10T10:08:14;18.00;99.90
19544;DHT22;9917;51.256;7.152;2023-05-10T10:10:41;17.00;99.90
19544;DHT22;9917;51.256;7.152;2023-05-10T10:13:07;16.30;99.90
19544;DHT22;9917;51.256;7.152;2023-05-10T10:15:33;16.90;99.90
19544;DHT22;9917;51.256;7.152;2023-05-10T10:18:00;16.50;99.90
19544;DHT22;9917;51.256;7.152;2023-05-10T10:20:26;16.40;99.90
19544;DHT22;9917;51.256;7.152;2023-05-10T10:22:52;16.70;99.90
19544;DHT22;9917;51.256;7.152;2023-05-10T10:25:20;17.10;99.90
19544;DHT22;9917;51.256;7.152;2023-05-10T10:27:54;17.20;99.90
19544;DHT22;9917;51.256;7.152;2023-05-10T10:30:25;17.10;99.90
19544;DHT22;9917;51.256;7.152;2023-05-10T10:33:13;17.00;99.90
19544;DHT22;9917;51.256;7.152;2023-05-10T10:35:44;16.70;99.90
19544;DHT22;9917;51.256;7.152;2023-05-10T10:38:12;16.60;99.90
19544;DHT22;9917;51.256;7.152;2023-05-10T10:40:39;16.50;99.90
19544;DHT22;9917;51.256;7.152;2023-05-10T10:43:22;17.00;99.90
19544;DHT22;9917;51.256;7.152;2023-05-10T10:46:11;15.60;99.90
19544;DHT22;9917;51.256;7.152;2023-05-10T10:48:37;17.00;99.90
19544;DHT22;9917;51.256;7.152;2023-05-10T10:53:30;19.20;99.90
19544;DHT22;9917;51.256;7.152;2023-05-10T10:56:06;20.40;99.90
19544;DHT22;9917;51.256;7.152;2023-05-10T10:58:32;21.20;99.90
19544;DHT22;9917;51.256;7.152;2023-05-10T11:01:12;21.10;99.90
19544;DHT22;9917;51.256;7.152;2023-05-10T11:03:38;19.90;99.90
19544;DHT22;9917;51.256;7.152;2023-05-10T11:08:32;19.00;99.90
19544;DHT22;9917;51.256;7.152;2023-05-10T11:11:07;18.50;99.90
19544;DHT22;9917;51.256;7.152;2023-05-10T11:13:34;18.30;99.90
19544;DHT22;9917;51.256;7.152;2023-05-10T11:16:13;18.10;99.90
19544;DHT22;9917;51.256;7.152;2023-05-10T11:18:39;17.90;99.90
19544;DHT22;9917;51.256;7.152;2023-05-10T11:21:08;17.80;99.90
19544;DHT22;9917;51.256;7.152;2023-05-10T11:23:48;17.70;99.90
19544;DHT22;9917;51.256;7.152;2023-05-10T11:26:15;17.70;99.90
19544;DHT22;9917;51.256;7.152;2023-05-10T11:28:42;18.30;99.90
19544;DHT22;9917;51.256;7.152;2023-05-10T11:31:08;18.80;99.90
19544;DHT22;9917;51.256;7.152;2023-05-10T11:33:42;19.10;99.90
19544;DHT22;9917;51.256;7.152;2023-05-10T11:36:13;20.10;99.90
19544;DHT22;9917;51.256;7.152;2023-05-10T11:38:40;21.90;99.90
19544;DHT22;9917;51.256;7.152;2023-05-10T11:41:08;23.40;99.90
19544;DHT22;9917;51.256;7.152;2023-05-10T11:43:35;26.00;98.90
19544;DHT22;9917;51.256;7.152;2023-05-10T11:48:29;25.50;91.70
19544;DHT22;9917;51.256;7.152;2023-05-10T11:50:55;24.60;92.70
19544;DHT22;9917;51.256;7.152;2023-05-10T11:55:47;23.00;94.90
19544;DHT22;9917;51.256;7.152;2023-05-10T12:00:41;22.10;96.90
19544;DHT22;9917;51.256;7.152;2023-05-10T12:08:11;20.20;99.90
19544;DHT22;9917;51.256;7.152;2023-05-10T12:10:37;19.90;99.90
19544;DHT22;9917;51.256;7.152;2023-05-10T12:17:56;19.20;99.90
19544;DHT22;9917;51.256;7.152;2023-05-10T12:20:23;19.20;99.90
19544;DHT22;9917;51.256;7.152;2023-05-10T12:22:51;18.60;99.90
19544;DHT22;9917;51.256;7.152;2023-05-10T12:25:17;18.80;99.90
19544;DHT22;9917;51.256;7.152;2023-05-10T12:27:53;18.60;99.90
19544;DHT22;9917;51.256;7.152;2023-05-10T12:30:20;18.30;99.90
19544;DHT22;9917;51.256;7.152;2023-05-10T12:32:46;18.10;99.90
19544;DHT22;9917;51.256;7.152;2023-05-10T12:35:13;18.00;99.90
19544;DHT22;9917;51.256;7.152;2023-05-10T12:37:42;17.90;99.90
19544;DHT22;9917;51.256;7.152;2023-05-10T12:40:10;18.30;99.90
19544;DHT22;9917;51.256;7.152;2023-05-10T12:42:36;18.60;99.90
19544;DHT22;9917;51.256;7.152;2023-05-10T12:45:09;18.80;99.90
19544;DHT22;9917;51.256;7.152;2023-05-10T12:47:35;19.00;99.90
19544;DHT22;9917;51.256;7.152;2023-05-10T12:50:02;19.00;99.90
19544;DHT22;9917;51.256;7.152;2023-05-10T12:52:32;19.30;99.90
19544;DHT22;9917;51.256;7.152;2023-05-10T12:54:58;19.70;99.90
19544;DHT22;9917;51.256;7.152;2023-05-10T12:57:27;20.20;99.90
19544;DHT22;9917;51.256;7.152;2023-05-10T12:59:54;20.30;99.90
19544;DHT22;9917;51.256;7.152;2023-05-10T13:02:19;20.20;99.90
19544;DHT22;9917;51.256;7.152;2023-05-10T13:04:45;20.00;99.90
19544;DHT22;9917;51.256;7.152;2023-05-10T13:07:11;19.60;99.90
19544;DHT22;9917;51.256;7.152;2023-05-10T13:09:39;19.80;99.90
19544;DHT22;9917;51.256;7.152;2023-05-10T13:12:05;20.50;99.90
19544;DHT22;9917;51.256;7.152;2023-05-10T13:14:31;21.40;99.90
19544;DHT22;9917;51.256;7.152;2023-05-10T13:16:57;22.20;99.90
19544;DHT22;9917;51.256;7.152;2023-05-10T13:19:23;22.50;99.90
19544;DHT22;9917;51.256;7.152;2023-05-10T13:21:48;22.60;99.90
19544;DHT22;9917;51.256;7.152;2023-05-10T13:24:14;22.40;99.90
19544;DHT22;9917;51.256;7.152;2023-05-10T13:26:41;21.80;99.90
19544;DHT22;9917;51.256;7.152;2023-05-10T13:29:07;21.00;99.90
19544;DHT22;9917;51.256;7.152;2023-05-10T13:31:34;20.40;99.90
19544;DHT22;9917;51.256;7.152;2023-05-10T13:34:00;19.90;99.90
19544;DHT22;9917;51.256;7.152;2023-05-10T13:36:25;19.50;99.90
19544;DHT22;9917;51.256;7.152;2023-05-10T13:38:51;19.20;99.90
19544;DHT22;9917;51.256;7.152;2023-05-10T13:41:17;18.90;99.90
19544;DHT22;9917;51.256;7.152;2023-05-10T13:43:44;18.50;99.90
19544;DHT22;9917;51.256;7.152;2023-05-10T13:46:09;18.50;99.90
19544;DHT22;9917;51.256;7.152;2023-05-10T13:51:01;18.20;99.90
19544;DHT22;9917;51.256;7.152;2023-05-10T13:53:27;18.20;99.90
19544;DHT22;9917;51.256;7.152;2023-05-10T14:00:46;17.60;99.90
19544;DHT22;9917;51.256;7.152;2023-05-10T14:03:12;17.30;99.90
19544;DHT22;9917;51.256;7.152;2023-05-10T14:05:37;18.10;99.90
19544;DHT22;9917;51.256;7.152;2023-05-10T14:08:08;17.50;99.90
19544;DHT22;9917;51.256;7.152;2023-05-10T14:10:34;18.20;99.90
19544;DHT22;9917;51.256;7.152;2023-05-10T14:13:00;18.40;99.90
19544;DHT22;9917;51.256;7.152;2023-05-10T14:15:27;18.40;99.90
19544;DHT22;9917;51.256;7.152;2023-05-10T14:17:54;19.00;99.90
19544;DHT22;9917;51.256;7.152;2023-05-10T14:20:21;20.10;99.90
19544;DHT22;9917;51.256;7.152;2023-05-10T14:22:46;20.80;99.90
19544;DHT22;9917;51.256;7.152;2023-05-10T14:25:27;21.30;99.90
19544;DHT22;9917;51.256;7.152;2023-05-10T14:30:20;21.90;99.90
19544;DHT22;9917;51.256;7.152;2023-05-10T14:32:45;22.20;99.90
19544;DHT22;9917;51.256;7.152;2023-05-10T14:35:13;22.40;99.90
19544;DHT22;9917;51.256;7.152;2023-05-10T14:37:44;22.30;99.90
19544;DHT22;9917;51.256;7.152;2023-05-10T14:40:10;21.90;99.90
19544;DHT22;9917;51.256;7.152;2023-05-10T14:42:36;21.40;99.90
19544;DHT22;9917;51.256;7.152;2023-05-10T14:45:03;21.30;99.90
19544;DHT22;9917;51.256;7.152;2023-05-10T14:47:29;21.60;99.90
19544;DHT22;9917;51.256;7.152;2023-05-10T14:49:57;22.60;99.90
19544;DHT22;9917;51.256;7.152;2023-05-10T14:52:25;22.80;99.90
19544;DHT22;9917;51.256;7.152;2023-05-10T14:54:50;23.00;98.40
19544;DHT22;9917;51.256;7.152;2023-05-10T14:57:16;23.00;98.70
19544;DHT22;9917;51.256;7.152;2023-05-10T14:59:42;22.90;99.40
19544;DHT22;9917;51.256;7.152;2023-05-10T15:02:08;22.70;98.90
19544;DHT22;9917;51.256;7.152;2023-05-10T15:04:54;22.90;98.10
19544;DHT22;9917;51.256;7.152;2023-05-10T15:07:20;22.90;98.30
19544;DHT22;9917;51.256;7.152;2023-05-10T15:09:47;22.60;98.60
19544;DHT22;9917;51.256;7.152;2023-05-10T15:12:12;22.40;98.10
19544;DHT22;9917;51.256;7.152;2023-05-10T15:14:38;22.80;98.10
19544;DHT22;9917;51.256;7.152;2023-05-10T15:17:06;22.60;96.70
19544;DHT22;9917;51.256;7.152;2023-05-10T15:19:32;23.40;97.20
19544;DHT22;9917;51.256;7.152;2023-05-10T15:22:05;21.70;97.70
19544;DHT22;9917;51.256;7.152;2023-05-10T15:24:33;20.70;99.40
19544;DHT22;9917;51.256;7.152;2023-05-10T15:27:00;20.70;99.80
19544;DHT22;9917;51.256;7.152;2023-05-10T15:29:26;20.40;99.90
19544;DHT22;9917;51.256;7.152;2023-05-10T15:31:52;19.80;99.90
19544;DHT22;9917;51.256;7.152;2023-05-10T15:34:18;19.70;99.90
19544;DHT22;9917;51.256;7.152;2023-05-10T15:36:43;19.50;99.90
19544;DHT22;9917;51.256;7.152;2023-05-10T15:39:10;19.40;99.90
19544;DHT22;9917;51.256;7.152;2023-05-10T15:41:36;19.40;99.90
19544;DHT22;9917;51.256;7.152;2023-05-10T15:44:03;19.50;99.90
19544;DHT22;9917;51.256;7.152;2023-05-10T15:46:29;19.40;99.90
19544;DHT22;9917;51.256;7.152;2023-05-10T15:48:57;19.50;99.90
19544;DHT22;9917;51.256;7.152;2023-05-10T15:51:23;19.30;99.90
19544;DHT22;9917;51.256;7.152;2023-05-10T15:53:49;19.10;99.90
19544;DHT22;9917;51.256;7.152;2023-05-10T15:58:41;19.30;99.90
19544;DHT22;9917;51.256;7.152;2023-05-10T16:01:08;19.50;99.90
19544;DHT22;9917;51.256;7.152;2023-05-10T16:03:34;19.70;99.90
19544;DHT22;9917;51.256;7.152;2023-05-10T16:06:00;19.80;99.90
19544;DHT22;9917;51.256;7.152;2023-05-10T16:08:27;19.70;99.90
19544;DHT22;9917;51.256;7.152;2023-05-10T16:10:54;19.50;99.90
19544;DHT22;9917;51.256;7.152;2023-05-10T16:13:19;19.40;99.90
19544;DHT22;9917;51.256;7.152;2023-05-10T16:15:45;19.40;99.90
19544;DHT22;9917;51.256;7.152;2023-05-10T16:18:12;19.20;99.90
19544;DHT22;9917;51.256;7.152;2023-05-10T16:20:38;19.30;99.90
19544;DHT22;9917;51.256;7.152;2023-05-10T16:23:05;19.20;99.90
19544;DHT22;9917;51.256;7.152;2023-05-10T16:25:31;19.10;99.90
19544;DHT22;9917;51.256;7.152;2023-05-10T16:27:57;19.00;99.90
19544;DHT22;9917;51.256;7.152;2023-05-10T16:30:23;18.90;99.90
19544;DHT22;9917;51.256;7.152;2023-05-10T16:32:49;18.80;99.90
19544;DHT22;9917;51.256;7.152;2023-05-10T16:35:16;18.80;99.90
19544;DHT22;9917;51.256;7.152;2023-05-10T16:37:42;18.80;99.90
19544;DHT22;9917;51.256;7.152;2023-05-10T16:40:09;18.90;99.90
19544;DHT22;9917;51.256;7.152;2023-05-10T16:42:35;18.80;99.90
19544;DHT22;9917;51.256;7.152;2023-05-10T16:45:00;18.80;99.90
19544;DHT22;9917;51.256;7.152;2023-05-10T16:47:26;18.90;99.90
19544;DHT22;9917;51.256;7.152;2023-05-10T16:49:52;18.60;99.90
19544;DHT22;9917;51.256;7.152;2023-05-10T16:52:19;18.40;99.90
19544;DHT22;9917;51.256;7.152;2023-05-10T16:54:45;18.20;99.90
19544;DHT22;9917;51.256;7.152;2023-05-10T16:57:10;18.20;99.90
19544;DHT22;9917;51.256;7.152;2023-05-10T16:59:36;18.10;99.90
19544;DHT22;9917;51.256;7.152;2023-05-10T17:02:02;18.00;99.90
19544;DHT22;9917;51.256;7.152;2023-05-10T17:04:30;18.10;99.90
19544;DHT22;9917;51.256;7.152;2023-05-10T17:06:56;18.10;99.90
19544;DHT22;9917;51.256;7.152;2023-05-10T17:09:23;18.10;99.90
19544;DHT22;9917;51.256;7.152;2023-05-10T17:11:49;18.20;99.90
19544;DHT22;9917;51.256;7.152;2023-05-10T17:14:14;18.10;99.90
19544;DHT22;9917;51.256;7.152;2023-05-10T17:16:40;18.10;99.90
19544;DHT22;9917;51.256;7.152;2023-05-10T17:19:06;18.00;99.90
19544;DHT22;9917;51.256;7.152;2023-05-10T17:21:32;18.00;99.90
19544;DHT22;9917;51.256;7.152;2023-05-10T17:23:59;18.00;99.90
19544;DHT22;9917;51.256;7.152;2023-05-10T17:26:26;17.80;99.90
19544;DHT22;9917;51.256;7.152;2023-05-10T17:28:52;17.70;99.90
19544;DHT22;9917;51.256;7.152;2023-05-10T17:31:18;17.60;99.90
19544;DHT22;9917;51.256;7.152;2023-05-10T17:33:44;17.50;99.90
19544;DHT22;9917;51.256;7.152;2023-05-10T17:36:09;17.40;99.90
19544;DHT22;9917;51.256;7.152;2023-05-10T17:38:35;17.30;99.90
19544;DHT22;9917;51.256;7.152;2023-05-10T17:41:01;17.30;99.90
19544;DHT22;9917;51.256;7.152;2023-05-10T17:43:28;17.10;99.90
19544;DHT22;9917;51.256;7.152;2023-05-10T17:45:54;17.10;99.90
19544;DHT22;9917;51.256;7.152;2023-05-10T17:48:20;17.00;99.90
19544;DHT22;9917;51.256;7.152;2023-05-10T17:50:45;16.90;99.90
19544;DHT22;9917;51.256;7.152;2023-05-10T17:53:13;16.90;99.90
19544;DHT22;9917;51.256;7.152;2023-05-10T17:55:39;16.70;99.90
19544;DHT22;9917;51.256;7.152;2023-05-10T17:58:05;16.60;99.90
19544;DHT22;9917;51.256;7.152;2023-05-10T18:00:32;16.40;99.90
19544;DHT22;9917;51.256;7.152;2023-05-10T18:02:58;16.10;99.90
19544;DHT22;9917;51.256;7.152;2023-05-10T18:05:24;15.90;99.90
19544;DHT22;9917;51.256;7.152;2023-05-10T18:07:49;15.80;99.90
19544;DHT22;9917;51.256;7.152;2023-05-10T18:10:15;15.70;99.90
19544;DHT22;9917;51.256;7.152;2023-05-10T18:12:41;15.70;99.90
19544;DHT22;9917;51.256;7.152;2023-05-10T18:15:07;15.70;99.90
19544;DHT22;9917;51.256;7.152;2023-05-10T18:17:36;15.60;99.90
19544;DHT22;9917;51.256;7.152;2023-05-10T18:20:02;15.60;99.90
19544;DHT22;9917;51.256;7.152;2023-05-10T18:22:27;15.50;99.90
19544;DHT22;9917;51.256;7.152;2023-05-10T18:24:53;15.30;99.90
19544;DHT22;9917;51.256;7.152;2023-05-10T18:27:19;15.20;99.90
19544;DHT22;9917;51.256;7.152;2023-05-10T18:29:45;15.10;99.90
19544;DHT22;9917;51.256;7.152;2023-05-10T18:32:10;15.00;99.90
19544;DHT22;9917;51.256;7.152;2023-05-10T18:34:37;14.90;99.90
19544;DHT22;9917;51.256;7.152;2023-05-10T18:37:03;14.90;99.90
19544;DHT22;9917;51.256;7.152;2023-05-10T18:39:29;14.80;99.90
19544;DHT22;9917;51.256;7.152;2023-05-10T18:41:54;14.80;99.90
19544;DHT22;9917;51.256;7.152;2023-05-10T18:44:20;14.60;99.90
19544;DHT22;9917;51.256;7.152;2023-05-10T18:46:46;14.40;99.90
19544;DHT22;9917;51.256;7.152;2023-05-10T18:49:11;14.50;99.90
19544;DHT22;9917;51.256;7.152;2023-05-10T18:51:38;14.50;99.90
19544;DHT22;9917;51.256;7.152;2023-05-10T18:54:04;14.50;99.90
19544;DHT22;9917;51.256;7.152;2023-05-10T18:56:32;14.40;99.90
19544;DHT22;9917;51.256;7.152;2023-05-10T18:58:58;14.40;99.90
19544;DHT22;9917;51.256;7.152;2023-05-10T19:01:23;14.40;99.90
19544;DHT22;9917;51.256;7.152;2023-05-10T19:03:49;14.50;99.90
19544;DHT22;9917;51.256;7.152;2023-05-10T19:06:15;14.60;99.90
19544;DHT22;9917;51.256;7.152;2023-05-10T19:08:45;14.60;99.90
19544;DHT22;9917;51.256;7.152;2023-05-10T19:11:11;14.60;99.90
19544;DHT22;9917;51.256;7.152;2023-05-10T19:13:36;14.60;99.90
19544;DHT22;9917;51.256;7.152;2023-05-10T19:16:03;14.50;99.90
19544;DHT22;9917;51.256;7.152;2023-05-10T19:18:29;14.40;99.90
19544;DHT22;9917;51.256;7.152;2023-05-10T19:20:55;14.30;99.90
19544;DHT22;9917;51.256;7.152;2023-05-10T19:23:21;14.50;99.90
19544;DHT22;9917;51.256;7.152;2023-05-10T19:25:48;14.40;99.90
19544;DHT22;9917;51.256;7.152;2023-05-10T19:28:13;14.40;99.90
19544;DHT22;9917;51.256;7.152;2023-05-10T19:30:39;14.30;99.90
19544;DHT22;9917;51.256;7.152;2023-05-10T19:33:05;14.20;99.90
19544;DHT22;9917;51.256;7.152;2023-05-10T19:35:30;14.20;99.90
19544;DHT22;9917;51.256;7.152;2023-05-10T19:37:58;14.20;99.90
19544;DHT22;9917;51.256;7.152;2023-05-10T19:40:23;14.20;99.90
19544;DHT22;9917;51.256;7.152;2023-05-10T19:42:51;14.20;99.90
19544;DHT22;9917;51.256;7.152;2023-05-10T19:45:16;14.20;99.90
19544;DHT22;9917;51.256;7.152;2023-05-10T19:47:42;14.30;99.90
19544;DHT22;9917;51.256;7.152;2023-05-10T19:50:08;14.30;99.90
19544;DHT22;9917;51.256;7.152;2023-05-10T19:52:34;14.20;99.90
19544;DHT22;9917;51.256;7.152;2023-05-10T19:54:59;14.10;99.90
19544;DHT22;9917;51.256;7.152;2023-05-10T19:57:25;14.20;99.90
19544;DHT22;9917;51.256;7.152;2023-05-10T20:00:03;14.20;99.90